Disclaimer

Please do not use the information listed here in-flight or in-navigation, as they are not provided to us by the airports but are provided by volunteers, so they might be outdated.

Search


Regions


Airport information page

Radio informations:
Aerodrome flight information system (AFIS) - 118.65 MHz

Airport informations:
Latitude: 65° 59' 15.27" N
Longitude: 029° 14' 21.77" E
Elevation: 866 feet - 264 meters
Operating hours: N/A
Operating agency: Civil government, landing fees and diplomatic clearance may be required
Timezone: UTC+2(+3DT) - Last Sunday in March to last Sunday in October
Fuel: Jet A1, without icing nhibitor.

100/130 MIL Spec, low lead, aviation gasoline (BLUE)

Runway information:
12/30 - 8202 x 148 feet< - >2500 x 45 meters

Recent METARs:
EFKS 181920Z AUTO 32002KT CAVOK M08/M08 Q1040
EFKS 181950Z AUTO 24001KT CAVOK M08/M08 Q1040
EFKS 182020Z AUTO 23002KT CAVOK M08/M08 Q1040

Airport on the map: